Αρχική σελίδα
METAR-TAF:

METAR-TAF

Αεροδρόμια :

Red Oak Municipal Airport

Red Oak, Αϊόβα, Ηνωμένες Πολιτείες Αμερικής

γεωγραφικό πλάτος: 41-01N, γεωγραφικό μήκος: 095-16W, υψόμετρο: 318 μ

Παρών καιρός

Η αναφορά έγινε 29 λεπτά πριν, στις 09:55 UTC
Ήπιος άνεμος
Θερμοκρασία -1°C
Υγρασία 100%
Πίεση 1009 hPa
Ορατότητα: 16.1 χλμ
Νεφοσκεπής σε ύψος 3100 πόδια

METAR: KRDK 130955Z AUTO 00000KT 10SM OVC031 M01/M01 A2981 RMK AO2

Χρόνος: 04:24 (10:24 UTC)


TAF: λείπει

Μετεωρολογικές αναφορές και προγνώσεις για περισσότερα από 4000 αεροδρόμια (δελτία METAR και TAF).

Οι διαθέσιμοι σταθμοί απεικονίζονται στο χάρτη με κίτρινες και κόκκινες κουκκίδες.

Μετακινήστε το ποντίκι πάνω από τις κουκκίδες για να δείτε το όνομα του σταθμού.

Στη συνέχεια, κάντε κλικ για να δείτε τις μετεωρολογικές αναφορές και τις προγνώσεις καιρού.

Για να αλλάξετε το χάρτη: κάντε κλικ στα πράσινα κουμπιά με τον μαύρο σταυρό για να ζουμάρετε, στο πράσινο κουμπί με την παύλα για να αφαιρέσετε το ζουμ ή στα πράσινα βέλη για να αντιπαραβάλλετε χάρτες.


METAR-TAF: